Time;durP1;ratioP1;P1;durP2;ratioP2;P2;SDS_P1;SDS_P2;PMS_P1;PMS_P2;Temp;Humidity;BMP_temperature;BMP_pressure;BME280_temperature;BME280_humidity;BME280_pressure;Samples;Min_cycle;Max_cycle;Signal;HPM_P1;HPM_P2
2020/12/07 00:01:57;;;;;;;3.17;2.05;;;8.70;83.30;;;;;;5020641;28;20025;-55
2020/12/07 00:04:23;;;;;;;2.15;1.95;;;8.70;83.50;;;;;;5021059;28;20478;-55
2020/12/07 00:06:55;;;;;;;2.25;1.85;;;8.70;83.50;;;;;;5021128;28;20069;-56
2020/12/07 00:09:20;;;;;;;2.90;2.30;;;8.70;83.40;;;;;;5027632;28;20021;-55
2020/12/07 00:11:48;;;;;;;2.88;2.30;;;8.70;83.60;;;;;;5022824;28;20522;-56
2020/12/07 00:14:14;;;;;;;4.85;2.40;;;8.70;83.50;;;;;;5021862;28;20072;-56
2020/12/07 00:16:43;;;;;;;3.25;2.28;;;8.70;83.30;;;;;;5022288;28;20105;-55
2020/12/07 00:19:09;;;;;;;2.35;1.90;;;8.70;83.50;;;;;;5021080;28;20072;-55
2020/12/07 00:21:35;;;;;;;4.97;3.00;;;8.70;83.60;;;;;;5022816;28;20093;-56
2020/12/07 00:24:00;;;;;;;3.50;2.63;;;8.70;83.40;;;;;;5020710;28;20042;-55
2020/12/07 00:26:26;;;;;;;3.00;2.33;;;8.70;83.40;;;;;;5021584;28;20040;-55
2020/12/07 00:28:51;;;;;;;3.85;2.90;;;8.70;83.50;;;;;;5021033;28;20032;-55
2020/12/07 00:31:17;;;;;;;3.97;2.80;;;8.70;84.30;;;;;;5021676;28;20450;-55
2020/12/07 00:33:43;;;;;;;3.38;2.45;;;8.70;83.50;;;;;;5020150;28;20034;-55
2020/12/07 00:36:08;;;;;;;3.40;2.40;;;8.70;83.80;;;;;;5023307;28;20119;-56
2020/12/07 00:38:34;;;;;;;4.85;3.40;;;8.70;83.60;;;;;;5021591;28;20018;-55
2020/12/07 00:40:59;;;;;;;5.47;3.67;;;8.70;83.60;;;;;;5021900;28;20455;-55
2020/12/07 00:43:25;;;;;;;4.40;2.85;;;8.70;83.80;;;;;;5020884;28;20037;-55
2020/12/07 00:45:51;;;;;;;3.35;2.55;;;8.70;83.70;;;;;;5023642;28;20029;-55
2020/12/07 00:48:16;;;;;;;7.70;3.75;;;8.70;83.60;;;;;;5021534;28;20382;-55
2020/12/07 00:50:42;;;;;;;5.00;2.92;;;8.70;83.50;;;;;;5018456;28;20026;-55
2020/12/07 00:53:07;;;;;;;8.02;3.85;;;8.70;83.40;;;;;;5021217;28;20034;-55
2020/12/07 00:55:33;;;;;;;6.22;3.20;;;8.70;83.70;;;;;;5020877;28;20537;-55
2020/12/07 00:57:59;;;;;;;4.25;2.90;;;8.70;83.40;;;;;;5021337;28;20018;-56
2020/12/07 01:00:24;;;;;;;5.25;3.42;;;8.70;83.60;;;;;;5021155;28;20121;-55
2020/12/07 01:02:50;;;;;;;4.53;2.80;;;8.70;83.60;;;;;;5019342;28;20030;-55
2020/12/07 01:05:16;;;;;;;5.90;3.33;;;8.70;83.40;;;;;;5020558;28;20112;-55
2020/12/07 01:07:41;;;;;;;6.38;3.28;;;8.70;83.30;;;;;;5020973;28;20025;-55
2020/12/07 01:10:07;;;;;;;3.70;2.55;;;8.70;83.50;;;;;;5020202;28;20068;-55
2020/12/07 01:12:32;;;;;;;3.88;2.58;;;8.70;83.30;;;;;;5020657;28;20033;-55
2020/12/07 01:14:58;;;;;;;3.95;2.70;;;8.70;83.40;;;;;;5025471;28;20041;-55
2020/12/07 01:17:24;;;;;;;4.68;2.88;;;8.70;83.50;;;;;;5021605;28;20041;-55
2020/12/07 01:19:49;;;;;;;5.53;2.72;;;8.70;83.60;;;;;;5020487;28;20027;-56
2020/12/07 01:22:15;;;;;;;4.68;2.80;;;8.70;83.40;;;;;;5021612;28;20025;-55
2020/12/07 01:24:41;;;;;;;3.83;2.72;;;8.70;83.40;;;;;;5020479;28;20025;-55
2020/12/07 01:27:06;;;;;;;2.35;1.63;;;8.70;83.40;;;;;;5020714;28;20033;-55
2020/12/07 01:29:34;;;;;;;3.75;2.08;;;8.70;83.80;;;;;;5019933;28;20033;-55
2020/12/07 01:31:59;;;;;;;3.55;2.55;;;8.70;83.70;;;;;;5022028;28;20047;-55
2020/12/07 01:34:25;;;;;;;6.00;3.15;;;8.70;83.50;;;;;;5020412;28;20136;-56
2020/12/07 01:36:51;;;;;;;4.20;2.72;;;8.70;83.60;;;;;;5020001;28;20508;-55
2020/12/07 01:39:16;;;;;;;4.07;2.30;;;8.70;83.40;;;;;;5020327;28;20098;-55
2020/12/07 01:41:42;;;;;;;4.75;3.00;;;8.70;83.80;;;;;;5018923;28;20022;-56
2020/12/07 01:44:08;;;;;;;8.68;3.45;;;8.70;83.50;;;;;;5016917;28;20454;-56
2020/12/07 01:46:35;;;;;;;4.65;2.88;;;8.70;83.70;;;;;;5021467;28;20375;-55
2020/12/07 01:49:01;;;;;;;4.47;2.65;;;8.70;83.80;;;;;;5020692;28;20179;-56
2020/12/07 01:51:27;;;;;;;4.10;3.03;;;8.60;83.70;;;;;;5020093;28;20515;-56
2020/12/07 01:53:52;;;;;;;2.35;1.75;;;8.70;83.50;;;;;;5021561;28;20285;-56
2020/12/07 01:56:29;;;;;;;6.45;2.55;;;8.70;83.40;;;;;;5021084;28;20422;-55
2020/12/07 01:58:58;;;;;;;3.25;2.08;;;8.70;83.30;;;;;;5020215;28;20021;-55
2020/12/07 02:01:26;;;;;;;2.97;1.88;;;8.70;83.60;;;;;;5019225;28;20034;-56
2020/12/07 02:03:52;;;;;;;2.40;1.95;;;8.60;83.40;;;;;;5019045;28;20061;-56
2020/12/07 02:06:17;;;;;;;3.17;2.00;;;8.70;83.60;;;;;;5019602;28;20113;-55
2020/12/07 02:08:49;;;;;;;2.50;1.70;;;8.70;83.60;;;;;;5021757;28;20108;-56
2020/12/07 02:11:16;;;;;;;1.98;1.80;;;8.60;83.70;;;;;;5025703;28;20463;-56
2020/12/07 02:13:42;;;;;;;3.22;1.90;;;8.70;83.60;;;;;;5019822;28;20034;-55
2020/12/07 02:16:08;;;;;;;1.65;1.48;;;8.70;83.50;;;;;;5022363;28;20026;-55
2020/12/07 02:18:33;;;;;;;1.60;1.50;;;8.70;83.40;;;;;;5025557;28;20032;-55
2020/12/07 02:20:59;;;;;;;1.85;1.60;;;8.70;83.70;;;;;;5022580;28;20443;-55
2020/12/07 02:23:24;;;;;;;1.73;1.30;;;8.70;83.70;;;;;;5024209;28;20056;-55
2020/12/07 02:25:50;;;;;;;1.67;1.23;;;8.70;83.80;;;;;;5021845;28;20033;-55
2020/12/07 02:28:16;;;;;;;1.23;1.13;;;8.70;83.70;;;;;;5024538;28;20455;-55
2020/12/07 02:30:41;;;;;;;1.67;1.48;;;8.70;83.80;;;;;;5021311;28;20034;-55
2020/12/07 02:33:07;;;;;;;1.75;1.63;;;8.70;83.60;;;;;;5025160;28;20083;-55
2020/12/07 02:35:32;;;;;;;1.05;1.05;;;8.70;83.80;;;;;;5022264;28;20029;-56
2020/12/07 02:37:58;;;;;;;0.88;0.82;;;8.70;83.80;;;;;;5022778;28;20383;-56
2020/12/07 02:40:24;;;;;;;0.98;0.98;;;8.70;83.60;;;;;;5022941;28;20105;-55
2020/12/07 02:42:49;;;;;;;0.90;0.90;;;8.70;83.80;;;;;;5023092;28;20038;-55
2020/12/07 02:45:17;;;;;;;1.00;0.90;;;8.70;83.60;;;;;;5023146;28;20030;-55
2020/12/07 02:47:43;;;;;;;1.75;1.00;;;8.70;83.40;;;;;;5023844;28;20026;-56
2020/12/07 02:50:10;;;;;;;0.90;0.90;;;8.70;83.60;;;;;;5023819;28;20034;-56
2020/12/07 02:52:36;;;;;;;2.42;1.52;;;8.70;83.60;;;;;;5023535;28;20026;-55
2020/12/07 02:55:05;;;;;;;0.88;0.88;;;8.70;83.80;;;;;;5023440;28;20348;-55
2020/12/07 02:57:31;;;;;;;3.08;1.13;;;8.70;83.50;;;;;;5022492;28;20037;-55
2020/12/07 02:59:56;;;;;;;0.85;0.85;;;8.60;83.70;;;;;;5021826;28;20025;-55
2020/12/07 03:02:22;;;;;;;0.90;0.90;;;8.70;84.10;;;;;;5022874;28;20036;-55
2020/12/07 03:04:48;;;;;;;1.23;1.00;;;8.70;83.50;;;;;;5024326;28;20040;-56
2020/12/07 03:07:14;;;;;;;1.25;0.90;;;8.60;83.40;;;;;;5021181;28;20026;-55
2020/12/07 03:09:39;;;;;;;1.20;1.10;;;8.60;83.40;;;;;;5024279;28;20033;-55
2020/12/07 03:12:06;;;;;;;1.38;1.10;;;8.60;83.70;;;;;;5022725;28;20037;-55
2020/12/07 03:14:32;;;;;;;2.10;1.13;;;8.60;83.20;;;;;;5020167;28;20091;-56
2020/12/07 03:16:58;;;;;;;1.65;1.17;;;8.60;83.20;;;;;;5024362;28;20399;-55
2020/12/07 03:19:24;;;;;;;1.10;1.00;;;8.60;83.40;;;;;;5023200;28;20083;-55
2020/12/07 03:21:50;;;;;;;1.13;1.00;;;8.70;83.30;;;;;;5022186;28;20101;-55
2020/12/07 03:24:15;;;;;;;1.40;1.20;;;8.60;83.50;;;;;;5021606;28;20076;-55
2020/12/07 03:26:42;;;;;;;1.23;1.13;;;8.60;83.30;;;;;;5015498;28;20037;-55
2020/12/07 03:29:08;;;;;;;1.35;1.25;;;8.70;83.50;;;;;;5020759;28;20447;-55
2020/12/07 03:31:36;;;;;;;1.35;1.23;;;8.60;83.50;;;;;;5020240;28;20060;-56
2020/12/07 03:34:03;;;;;;;1.42;1.33;;;8.70;83.60;;;;;;5020073;28;20471;-56
2020/12/07 03:36:29;;;;;;;1.48;1.38;;;8.70;83.50;;;;;;5021053;28;20187;-55
2020/12/07 03:38:55;;;;;;;1.95;1.73;;;8.70;83.30;;;;;;5020636;28;20116;-55
2020/12/07 03:41:21;;;;;;;10.85;1.42;;;8.70;83.60;;;;;;5021885;28;20025;-55
2020/12/07 03:43:46;;;;;;;1.85;1.30;;;8.60;83.30;;;;;;5019025;28;20029;-55
2020/12/07 03:46:12;;;;;;;1.77;1.42;;;8.70;83.40;;;;;;5021924;28;20025;-55
2020/12/07 03:48:39;;;;;;;1.60;1.48;;;8.60;83.30;;;;;;5021751;28;20037;-55
2020/12/07 03:51:05;;;;;;;1.33;1.23;;;8.70;83.70;;;;;;5020217;28;21299;-55
2020/12/07 03:53:33;;;;;;;1.73;1.27;;;8.70;83.70;;;;;;5022095;28;20508;-55
2020/12/07 03:55:59;;;;;;;5.32;1.58;;;8.70;83.60;;;;;;5019577;28;20057;-56
2020/12/07 03:58:25;;;;;;;1.50;1.40;;;8.70;83.50;;;;;;5020651;28;20042;-56
2020/12/07 04:00:51;;;;;;;1.77;1.67;;;8.60;83.30;;;;;;5021113;28;20033;-56
2020/12/07 04:03:16;;;;;;;1.98;1.50;;;8.60;83.30;;;;;;5019534;28;20076;-55
2020/12/07 04:05:45;;;;;;;1.85;1.40;;;8.60;83.20;;;;;;5022499;28;20029;-55
2020/12/07 04:08:11;;;;;;;1.88;1.73;;;8.60;83.30;;;;;;5022890;28;20466;-55
2020/12/07 04:10:38;;;;;;;1.77;1.65;;;8.60;83.50;;;;;;5018222;28;20034;-56
2020/12/07 04:13:04;;;;;;;2.55;1.80;;;8.60;83.30;;;;;;5023113;28;20056;-55
2020/12/07 04:15:30;;;;;;;2.72;2.10;;;8.60;83.30;;;;;;5021514;28;20478;-56
2020/12/07 04:17:56;;;;;;;2.13;1.63;;;8.70;83.30;;;;;;5022153;28;20029;-56
2020/12/07 04:20:21;;;;;;;3.08;2.13;;;8.60;83.20;;;;;;5020181;28;20040;-55
2020/12/07 04:22:47;;;;;;;2.90;2.05;;;8.60;83.20;;;;;;5023277;28;20450;-55
2020/12/07 04:25:12;;;;;;;2.20;2.00;;;8.60;83.30;;;;;;5021760;28;20087;-55
2020/12/07 04:27:38;;;;;;;1.98;1.77;;;8.60;83.50;;;;;;5023189;28;20045;-55
2020/12/07 04:30:05;;;;;;;2.92;2.22;;;8.70;83.60;;;;;;5020350;28;20060;-55
2020/12/07 04:32:30;;;;;;;2.10;1.85;;;8.70;83.30;;;;;;5021822;28;20064;-56
2020/12/07 04:34:56;;;;;;;2.60;1.85;;;8.70;83.50;;;;;;5020609;28;20066;-56
2020/12/07 04:37:22;;;;;;;2.55;1.90;;;8.60;83.40;;;;;;5023448;28;20017;-55
2020/12/07 04:39:48;;;;;;;2.42;1.67;;;8.60;83.20;;;;;;5020255;28;20455;-55
2020/12/07 04:42:14;;;;;;;1.90;1.60;;;8.60;83.50;;;;;;5022612;28;20470;-55
2020/12/07 04:44:40;;;;;;;1.65;1.50;;;8.60;83.40;;;;;;5023672;28;20033;-56
2020/12/07 04:47:07;;;;;;;1.75;1.40;;;8.70;83.20;;;;;;5022361;28;20091;-55
2020/12/07 04:49:33;;;;;;;1.98;1.77;;;8.60;83.30;;;;;;5017120;28;20103;-55
2020/12/07 04:51:59;;;;;;;2.15;1.60;;;8.60;83.30;;;;;;5019426;28;20041;-56
2020/12/07 04:54:25;;;;;;;2.20;1.48;;;8.60;83.50;;;;;;5022503;28;20507;-56
2020/12/07 04:56:58;;;;;;;1.58;1.38;;;8.60;83.20;;;;;;5022018;28;20031;-55
2020/12/07 04:59:24;;;;;;;1.80;1.70;;;8.70;83.50;;;;;;5020768;28;20034;-55
2020/12/07 05:01:51;;;;;;;2.67;1.90;;;8.60;83.50;;;;;;5020470;28;20033;-55
2020/12/07 05:04:16;;;;;;;3.47;2.25;;;8.60;83.30;;;;;;5021833;28;20032;-55
2020/12/07 05:06:42;;;;;;;2.70;1.60;;;8.60;83.40;;;;;;5020555;28;20025;-56
2020/12/07 05:09:09;;;;;;;2.00;1.77;;;8.60;83.40;;;;;;5022008;28;20030;-56
2020/12/07 05:11:35;;;;;;;2.88;1.90;;;8.60;83.10;;;;;;5020629;28;20029;-55
2020/12/07 05:14:08;;;;;;;2.33;1.65;;;8.60;83.20;;;;;;5020435;28;20467;-56
2020/12/07 05:16:34;;;;;;;2.25;1.88;;;8.60;83.30;;;;;;5019258;28;20052;-55
2020/12/07 05:19:09;;;;;;;2.10;1.85;;;8.60;83.50;;;;;;5019835;28;20582;-55
2020/12/07 05:21:36;;;;;;;2.42;2.10;;;8.60;83.40;;;;;;5020102;28;20021;-55
2020/12/07 05:24:02;;;;;;;2.90;1.80;;;8.60;83.20;;;;;;5022483;28;20481;-55
2020/12/07 05:26:29;;;;;;;3.65;2.33;;;8.60;83.10;;;;;;5019474;28;20030;-55
2020/12/07 05:29:04;;;;;;;2.30;1.92;;;8.60;83.20;;;;;;5020411;28;20075;-55
2020/12/07 05:31:35;;;;;;;2.88;1.75;;;8.60;83.40;;;;;;5020023;28;20482;-55
2020/12/07 05:34:01;;;;;;;3.45;1.95;;;8.60;84.10;;;;;;5021044;28;20406;-55
2020/12/07 05:36:27;;;;;;;1.85;1.50;;;8.60;83.40;;;;;;5021476;28;20164;-55
2020/12/07 05:38:53;;;;;;;5.18;1.95;;;8.60;83.20;;;;;;5021517;28;20033;-55
2020/12/07 05:41:22;;;;;;;2.72;2.03;;;8.60;83.30;;;;;;5019748;28;20436;-55
2020/12/07 05:43:51;;;;;;;1.95;1.73;;;8.60;83.20;;;;;;5018261;28;20026;-55
2020/12/07 05:46:18;;;;;;;1.63;1.23;;;8.60;83.10;;;;;;5019389;28;20033;-55
2020/12/07 05:48:46;;;;;;;4.63;2.85;;;8.70;83.10;;;;;;5018777;28;20033;-55
2020/12/07 05:51:13;;;;;;;3.42;2.38;;;8.60;83.20;;;;;;5017591;28;20033;-54
2020/12/07 05:53:41;;;;;;;3.75;2.33;;;8.70;83.40;;;;;;5022094;28;20406;-55
2020/12/07 05:56:10;;;;;;;2.42;1.60;;;8.70;83.20;;;;;;5024258;28;20381;-55
2020/12/07 05:58:46;;;;;;;3.60;2.40;;;8.70;83.30;;;;;;5019965;28;20337;-55
2020/12/07 06:01:16;;;;;;;2.60;2.10;;;8.70;82.90;;;;;;5021997;28;20025;-54
2020/12/07 06:03:42;;;;;;;4.00;2.90;;;8.70;83.10;;;;;;5025730;28;20060;-55
2020/12/07 06:06:08;;;;;;;5.32;2.78;;;8.70;83.10;;;;;;5023449;28;20026;-55
2020/12/07 06:08:36;;;;;;;6.57;3.70;;;8.70;83.40;;;;;;5024119;28;20037;-55
2020/12/07 06:11:06;;;;;;;3.40;2.83;;;8.70;83.20;;;;;;5031337;28;20040;-55
2020/12/07 06:13:32;;;;;;;;;;;8.70;83.40;;;;;;5023696;28;20056;-55
2020/12/07 06:16:03;;;;;;;7.20;4.80;;;8.70;83.50;;;;;;5024234;28;20364;-55
2020/12/07 06:18:40;;;;;;;8.07;5.28;;;8.70;83.30;;;;;;5025117;28;20025;-55
2020/12/07 06:21:19;;;;;;;10.60;5.75;;;8.70;83.10;;;;;;5023405;28;20454;-55
2020/12/07 06:23:47;;;;;;;7.35;4.78;;;8.70;83.80;;;;;;5024505;28;20530;-55
2020/12/07 06:26:14;;;;;;;9.15;4.70;;;8.70;83.10;;;;;;5022356;28;20026;-55
2020/12/07 06:28:43;;;;;;;6.82;3.50;;;8.70;83.00;;;;;;5022836;28;20033;-55
2020/12/07 06:31:09;;;;;;;5.60;3.13;;;8.70;83.10;;;;;;5022549;28;20026;-55
2020/12/07 06:33:49;;;;;;;5.22;3.35;;;8.70;83.00;;;;;;5022854;28;20510;-55
2020/12/07 06:36:28;;;;;;;5.68;3.85;;;8.70;83.10;;;;;;5024518;28;20116;-55
2020/12/07 06:38:59;;;;;;;8.30;4.63;;;8.70;83.10;;;;;;5022868;28;20088;-55
2020/12/07 06:41:31;;;;;;;;;;;8.70;82.90;;;;;;5024371;28;20454;-55
2020/12/07 06:43:59;;;;;;;9.93;4.63;;;8.70;82.90;;;;;;5022943;28;20359;-55
2020/12/07 06:46:51;;;;;;;5.35;3.80;;;8.70;83.30;;;;;;5024147;28;20108;-55
2020/12/07 06:49:17;;;;;;;7.30;4.35;;;8.70;83.10;;;;;;5023167;28;20040;-55
2020/12/07 06:51:46;;;;;;;9.55;5.55;;;8.70;82.80;;;;;;5022982;28;20379;-55
2020/12/07 06:57:22;;;;;;;5.22;2.97;;;8.70;82.80;;;;;;5022545;28;20096;-55
2020/12/07 07:00:05;;;;;;;7.90;5.03;;;8.70;83.00;;;;;;5021470;28;20022;-55
2020/12/07 07:02:31;;;;;;;9.90;3.95;;;8.70;83.00;;;;;;5024096;28;20091;-55
2020/12/07 07:04:59;;;;;;;7.85;4.38;;;8.70;82.90;;;;;;5022657;28;20443;-55
2020/12/07 07:07:27;;;;;;;7.72;4.82;;;8.70;83.00;;;;;;5022562;28;20080;-55
2020/12/07 07:09:54;;;;;;;5.05;3.45;;;8.70;83.10;;;;;;5023161;28;20033;-55
2020/12/07 07:12:20;;;;;;;8.25;3.95;;;8.70;82.90;;;;;;5023511;28;20032;-55
2020/12/07 07:14:48;;;;;;;6.88;3.60;;;8.70;82.90;;;;;;5020472;28;20160;-55
2020/12/07 07:17:17;;;;;;;7.13;3.88;;;8.70;82.90;;;;;;5022711;28;20037;-55
2020/12/07 07:19:42;;;;;;;6.78;3.72;;;8.70;82.80;;;;;;5022332;28;20088;-55
2020/12/07 07:22:09;;;;;;;4.43;2.47;;;8.70;83.10;;;;;;5020096;28;20030;-55
2020/12/07 07:24:57;;;;;;;5.13;3.35;;;8.70;83.20;;;;;;5019318;28;20072;-55
2020/12/07 07:30:07;;;;;;;6.07;3.05;;;8.70;83.10;;;;;;5019975;28;20045;-55
2020/12/07 07:32:33;;;;;;;6.40;3.70;;;8.70;83.10;;;;;;5018891;28;20026;-55
2020/12/07 07:34:59;;;;;;;5.22;2.85;;;8.70;83.10;;;;;;5024076;28;20045;-56
2020/12/07 07:37:25;;;;;;;6.00;3.40;;;8.70;82.70;;;;;;5021283;28;20450;-54
2020/12/07 07:40:01;;;;;;;6.60;2.80;;;8.70;83.70;;;;;;5019371;28;20464;-54
2020/12/07 07:42:28;;;;;;;4.25;3.13;;;8.70;83.40;;;;;;5013957;28;20032;-54
2020/12/07 07:44:55;;;;;;;5.40;3.63;;;8.70;82.90;;;;;;5018846;28;20045;-54
2020/12/07 07:47:35;;;;;;;6.07;3.42;;;8.70;82.70;;;;;;5024128;28;20025;-54
2020/12/07 08:16:57;;;;;;;5.70;3.15;;;8.70;83.10;;;;;;5017239;28;20088;-54
2020/12/07 08:19:23;;;;;;;7.18;3.42;;;8.70;82.90;;;;;;5021936;28;20033;-54
2020/12/07 08:21:49;;;;;;;6.57;3.25;;;8.70;82.70;;;;;;5020556;28;20030;-53
2020/12/07 08:24:15;;;;;;;6.53;3.63;;;8.70;82.80;;;;;;5019214;28;20029;-54
2020/12/07 08:26:42;;;;;;;4.13;2.70;;;8.70;82.90;;;;;;5018754;28;20177;-54
2020/12/07 08:29:08;;;;;;;3.85;2.83;;;8.70;82.80;;;;;;5019109;28;20033;-53
2020/12/07 08:31:38;;;;;;;4.50;2.67;;;8.70;82.90;;;;;;5020397;28;20036;-54
2020/12/07 08:34:14;;;;;;;4.70;2.65;;;8.80;83.00;;;;;;5020915;28;20038;-54
2020/12/07 08:36:42;;;;;;;6.22;3.58;;;8.80;82.90;;;;;;5016087;28;20029;-54
2020/12/07 08:39:08;;;;;;;2.72;1.90;;;8.80;82.90;;;;;;5017700;28;20054;-54
2020/12/07 08:41:35;;;;;;;5.93;2.20;;;8.80;82.70;;;;;;5020690;28;20041;-53
2020/12/07 08:44:09;;;;;;;4.13;1.98;;;8.80;82.90;;;;;;5020550;28;20034;-54
2020/12/07 08:46:37;;;;;;;2.17;1.98;;;8.70;83.00;;;;;;5016238;28;20032;-54
2020/12/07 08:49:05;;;;;;;2.15;1.67;;;8.70;83.10;;;;;;5021132;28;20034;-54
2020/12/07 08:51:32;;;;;;;4.20;1.92;;;8.80;83.10;;;;;;5019046;28;20030;-54
2020/12/07 08:53:58;;;;;;;6.03;3.00;;;8.80;82.50;;;;;;5020728;28;20048;-54
2020/12/07 08:56:24;;;;;;;3.22;2.40;;;8.80;83.00;;;;;;5017251;28;20518;-54
2020/12/07 08:58:50;;;;;;;3.25;2.08;;;8.80;83.00;;;;;;5016450;28;20034;-53
2020/12/07 09:01:16;;;;;;;3.20;1.45;;;8.80;82.80;;;;;;5020786;28;20032;-54
2020/12/07 09:03:43;;;;;;;3.35;2.25;;;8.80;83.10;;;;;;5019646;28;20029;-53
2020/12/07 09:06:12;;;;;;;7.78;1.98;;;8.80;83.10;;;;;;5020963;28;21185;-54
2020/12/07 09:08:37;;;;;;;2.65;1.80;;;8.80;83.10;;;;;;5019929;28;20057;-54
2020/12/07 09:11:07;;;;;;;2.75;1.80;;;8.80;83.20;;;;;;5019868;28;20067;-54
2020/12/07 09:13:34;;;;;;;3.80;1.63;;;8.80;82.90;;;;;;5020329;28;20406;-54
2020/12/07 09:16:01;;;;;;;3.03;1.85;;;8.80;83.00;;;;;;5019909;28;20030;-54
2020/12/07 09:18:27;;;;;;;3.05;1.92;;;8.80;83.30;;;;;;5018623;28;20038;-54
2020/12/07 09:20:53;;;;;;;2.42;1.65;;;8.80;83.20;;;;;;5020036;28;20358;-54
2020/12/07 09:23:19;;;;;;;1.70;1.17;;;8.80;82.90;;;;;;5019196;28;20034;-54
2020/12/07 09:25:46;;;;;;;1.58;1.42;;;8.80;83.10;;;;;;5019699;28;20030;-54
2020/12/07 09:28:12;;;;;;;2.72;1.65;;;8.80;83.20;;;;;;5023387;28;20108;-54
2020/12/07 09:30:38;;;;;;;2.83;1.52;;;8.80;83.00;;;;;;5023505;28;20109;-54
2020/12/07 09:33:04;;;;;;;2.17;1.92;;;8.80;83.40;;;;;;5020149;28;20036;-54
2020/12/07 09:35:30;;;;;;;2.20;1.90;;;8.80;83.30;;;;;;5021777;28;20030;-54
2020/12/07 09:37:55;;;;;;;3.08;2.10;;;8.80;83.30;;;;;;5019637;28;20403;-54
2020/12/07 09:40:21;;;;;;;2.65;2.15;;;8.80;83.30;;;;;;5018166;28;20454;-54
2020/12/07 09:42:47;;;;;;;2.85;2.00;;;8.80;83.30;;;;;;5021643;28;20462;-54
2020/12/07 09:45:13;;;;;;;2.97;2.15;;;8.80;83.30;;;;;;5023284;28;20029;-54
2020/12/07 09:47:38;;;;;;;1.80;1.70;;;8.80;83.30;;;;;;5021685;28;20026;-53
2020/12/07 09:50:06;;;;;;;2.88;1.85;;;8.90;83.20;;;;;;5023170;28;20034;-54
2020/12/07 09:52:32;;;;;;;3.85;1.90;;;8.90;83.00;;;;;;5019773;28;20113;-54
2020/12/07 09:54:57;;;;;;;3.78;1.98;;;8.80;83.10;;;;;;5020539;28;20108;-54
2020/12/07 09:57:23;;;;;;;4.47;2.17;;;8.80;83.20;;;;;;5019373;28;20018;-53
2020/12/07 09:59:50;;;;;;;3.28;1.90;;;8.80;83.20;;;;;;5018760;28;20026;-54
2020/12/07 10:02:19;;;;;;;4.00;2.60;;;8.80;83.40;;;;;;5024202;28;20429;-53
2020/12/07 10:04:46;;;;;;;3.25;2.13;;;8.90;83.30;;;;;;5021928;28;20348;-53
2020/12/07 10:07:12;;;;;;;2.85;1.80;;;8.90;83.30;;;;;;5022505;28;20026;-53
2020/12/07 10:09:38;;;;;;;4.60;2.67;;;8.90;83.30;;;;;;5019243;28;20029;-54
2020/12/07 10:12:04;;;;;;;3.63;1.85;;;8.90;83.70;;;;;;5022954;28;20509;-54
2020/12/07 10:14:31;;;;;;;4.10;2.25;;;8.90;83.30;;;;;;5020145;28;20380;-54
2020/12/07 10:16:58;;;;;;;3.00;2.10;;;8.90;83.70;;;;;;5023002;28;20037;-54
2020/12/07 10:19:24;;;;;;;2.97;1.77;;;8.90;83.20;;;;;;5018326;28;20055;-54
2020/12/07 10:21:50;;;;;;;2.72;1.85;;;8.90;83.50;;;;;;5021998;28;20406;-54
2020/12/07 10:24:15;;;;;;;3.20;1.80;;;8.90;83.60;;;;;;5019668;28;20079;-53
2020/12/07 10:26:41;;;;;;;2.50;1.80;;;8.90;83.50;;;;;;5020862;28;20022;-54
2020/12/07 10:29:07;;;;;;;2.22;1.70;;;8.90;83.20;;;;;;5020232;28;20026;-54
2020/12/07 10:31:32;;;;;;;2.13;1.35;;;8.90;83.40;;;;;;5018903;28;20129;-53
2020/12/07 10:33:58;;;;;;;1.98;1.77;;;8.90;83.70;;;;;;5023087;28;20069;-54
2020/12/07 10:36:24;;;;;;;2.33;1.73;;;8.90;83.60;;;;;;5020716;28;20022;-54
2020/12/07 10:38:51;;;;;;;2.60;1.40;;;8.90;83.40;;;;;;5021107;28;20033;-54
2020/12/07 10:41:17;;;;;;;5.18;2.45;;;8.90;83.80;;;;;;5019768;28;20034;-53
2020/12/07 10:43:46;;;;;;;3.50;2.08;;;8.90;83.50;;;;;;5022040;28;20163;-54
2020/12/07 10:46:12;;;;;;;4.22;2.10;;;8.90;83.40;;;;;;5022450;28;20359;-54
2020/12/07 10:48:38;;;;;;;4.97;2.13;;;8.90;83.30;;;;;;5021652;28;20056;-53
2020/12/07 10:51:04;;;;;;;4.32;2.17;;;8.90;83.50;;;;;;5019848;28;20060;-54
2020/12/07 10:53:29;;;;;;;1.83;1.48;;;8.90;83.80;;;;;;5018346;28;20029;-54
2020/12/07 10:55:55;;;;;;;2.75;1.80;;;8.90;83.40;;;;;;5016451;28;20044;-54
2020/12/07 10:58:22;;;;;;;3.40;1.92;;;8.90;84.00;;;;;;5020065;28;20394;-54
2020/12/07 11:00:48;;;;;;;4.88;2.78;;;8.90;83.70;;;;;;5021056;28;20459;-54
2020/12/07 11:03:14;;;;;;;5.25;2.75;;;8.90;83.60;;;;;;5020493;28;20037;-54
2020/12/07 11:05:41;;;;;;;3.92;2.47;;;8.90;83.40;;;;;;5017413;28;20041;-54
2020/12/07 11:08:15;;;;;;;4.03;3.20;;;8.90;83.70;;;;;;5018625;28;20030;-53
2020/12/07 11:10:41;;;;;;;7.03;3.58;;;8.90;83.60;;;;;;5023197;28;20060;-54
2020/12/07 11:13:18;;;;;;;7.22;2.97;;;8.90;83.70;;;;;;5023442;28;20374;-54
2020/12/07 11:15:44;;;;;;;4.97;2.67;;;8.90;83.60;;;;;;5021138;28;20045;-53
2020/12/07 11:18:09;;;;;;;5.30;2.10;;;8.90;83.30;;;;;;5021310;28;20497;-53
2020/12/07 11:20:35;;;;;;;3.58;1.85;;;8.90;83.60;;;;;;5019656;28;20033;-53
2020/12/07 11:23:01;;;;;;;4.05;2.13;;;8.90;82.90;;;;;;5021890;28;20469;-54
2020/12/07 11:25:26;;;;;;;3.58;2.30;;;8.80;84.90;;;;;;5019247;28;20556;-54
2020/12/07 11:27:52;;;;;;;4.25;2.20;;;8.80;84.30;;;;;;5015913;28;20521;-54
2020/12/07 11:30:17;;;;;;;4.75;2.88;;;8.90;83.90;;;;;;5017037;28;20144;-54
2020/12/07 11:32:43;;;;;;;2.38;1.48;;;8.90;83.20;;;;;;5016919;28;20285;-54
2020/12/07 11:35:09;;;;;;;2.95;1.90;;;8.90;83.40;;;;;;5017695;28;20130;-54
2020/12/07 11:37:35;;;;;;;5.00;2.40;;;8.90;83.10;;;;;;5020415;28;20049;-54
2020/12/07 11:40:16;;;;;;;3.72;1.98;;;8.90;82.70;;;;;;5017973;28;20378;-54
2020/12/07 11:43:02;;;;;;;4.43;2.10;;;8.90;82.90;;;;;;5020781;28;20451;-54
2020/12/07 11:45:28;;;;;;;3.70;1.90;;;8.90;83.00;;;;;;5021288;28;20045;-54
2020/12/07 11:47:53;;;;;;;2.13;1.65;;;8.90;83.70;;;;;;5017111;28;20033;-53
2020/12/07 11:50:19;;;;;;;1.73;1.33;;;8.90;83.00;;;;;;5020097;28;20025;-54
2020/12/07 11:52:44;;;;;;;3.25;1.40;;;8.90;82.90;;;;;;5020139;28;20057;-54
2020/12/07 11:55:10;;;;;;;4.20;1.95;;;8.90;83.30;;;;;;5022149;28;20514;-53
2020/12/07 11:57:35;;;;;;;3.78;2.40;;;8.90;83.20;;;;;;5019320;28;20022;-54
2020/12/07 12:00:02;;;;;;;2.55;1.80;;;8.90;83.20;;;;;;5020689;28;20542;-54
2020/12/07 12:02:28;;;;;;;3.60;2.10;;;8.90;83.20;;;;;;5019752;28;20025;-53
2020/12/07 12:04:53;;;;;;;3.08;1.92;;;8.90;83.20;;;;;;5020007;28;20037;-54
2020/12/07 12:07:19;;;;;;;3.78;1.95;;;8.90;83.30;;;;;;5020310;28;20470;-53
2020/12/07 12:09:45;;;;;;;1.05;0.90;;;8.90;83.30;;;;;;5021510;28;20107;-54
2020/12/07 12:12:11;;;;;;;1.60;1.40;;;8.90;83.20;;;;;;5019221;28;20029;-53
2020/12/07 12:14:36;;;;;;;2.55;1.30;;;8.90;83.40;;;;;;5020848;28;20030;-53
2020/12/07 12:17:02;;;;;;;3.83;2.00;;;8.90;83.50;;;;;;5020342;28;20459;-54
2020/12/07 12:19:27;;;;;;;2.85;1.90;;;8.90;83.20;;;;;;5021383;28;20508;-53
2020/12/07 12:21:54;;;;;;;2.17;1.88;;;8.90;83.20;;;;;;5018321;28;20121;-53
2020/12/07 12:24:20;;;;;;;3.58;1.77;;;8.90;83.50;;;;;;5018191;28;20045;-54
2020/12/07 12:26:46;;;;;;;2.47;1.60;;;8.90;83.10;;;;;;5023075;28;20584;-53
2020/12/07 12:29:12;;;;;;;3.05;1.23;;;8.90;83.20;;;;;;5020005;28;20025;-54
2020/12/07 12:31:38;;;;;;;2.72;1.75;;;8.90;83.70;;;;;;5018759;28;20589;-54
2020/12/07 12:34:03;;;;;;;2.83;1.60;;;8.90;83.50;;;;;;5020073;28;20490;-54
2020/12/07 12:36:30;;;;;;;5.57;1.90;;;8.90;83.40;;;;;;5019376;28;20029;-54
2020/12/07 12:38:57;;;;;;;2.67;1.75;;;8.90;83.30;;;;;;5021095;28;20034;-54
2020/12/07 12:41:23;;;;;;;1.27;0.73;;;8.90;83.50;;;;;;5021961;28;20055;-54
2020/12/07 12:43:49;;;;;;;2.10;1.75;;;8.90;83.50;;;;;;5017406;28;20041;-54
2020/12/07 12:46:15;;;;;;;2.42;1.77;;;8.90;83.30;;;;;;5021711;28;20367;-54
2020/12/07 12:48:41;;;;;;;3.63;1.58;;;8.90;83.50;;;;;;5019702;28;20057;-54
2020/12/07 12:51:08;;;;;;;3.38;2.00;;;8.90;83.50;;;;;;5021213;28;20061;-54
2020/12/07 12:53:34;;;;;;;2.53;1.70;;;8.90;83.30;;;;;;5021267;28;20067;-54
2020/12/07 12:56:00;;;;;;;2.70;1.90;;;8.90;83.70;;;;;;5022460;28;20077;-54
2020/12/07 12:58:26;;;;;;;2.22;1.40;;;8.90;83.50;;;;;;5020579;28;20370;-53
2020/12/07 13:00:52;;;;;;;3.90;1.65;;;8.90;83.50;;;;;;5018454;28;20394;-54
2020/12/07 13:03:18;;;;;;;4.18;2.22;;;8.90;83.30;;;;;;5020805;28;20029;-54
2020/12/07 13:05:44;;;;;;;3.97;1.75;;;8.90;83.40;;;;;;5019204;28;20034;-54
2020/12/07 13:08:09;;;;;;;2.40;1.45;;;8.90;83.60;;;;;;5020039;28;20025;-54
2020/12/07 13:10:35;;;;;;;2.03;1.75;;;8.90;83.50;;;;;;5020633;28;20100;-53
2020/12/07 13:13:01;;;;;;;2.13;1.50;;;8.90;83.50;;;;;;5018957;28;20109;-54
2020/12/07 13:15:28;;;;;;;1.92;1.63;;;8.90;83.50;;;;;;5017832;28;20084;-54
2020/12/07 13:18:00;;;;;;;6.82;1.98;;;8.90;83.50;;;;;;5021421;28;20060;-54
2020/12/07 13:20:36;;;;;;;3.17;1.50;;;8.90;83.30;;;;;;5020351;28;20037;-54
2020/12/07 13:23:12;;;;;;;3.53;1.63;;;8.90;83.50;;;;;;5021248;28;20068;-54
2020/12/07 13:26:04;;;;;;;2.97;1.95;;;8.90;83.60;;;;;;5019182;28;20034;-54
2020/12/07 13:28:29;;;;;;;3.58;1.70;;;8.90;83.50;;;;;;5021305;28;20057;-54
2020/12/07 13:30:55;;;;;;;3.13;1.92;;;8.90;83.60;;;;;;5019736;28;20072;-54